createdAt,value
2018-08-04T00:00:23.844Z,49.20
2018-08-04T00:05:25.285Z,49.30
2018-08-04T00:12:57.612Z,49.70
2018-08-04T00:15:28.303Z,49.60
2018-08-04T00:17:58.945Z,50.00
2018-08-04T00:23:00.603Z,49.70
2018-08-04T00:28:01.475Z,49.70
2018-08-04T00:30:32.346Z,49.50
2018-08-04T00:33:02.972Z,49.70
2018-08-04T00:35:34.575Z,49.60
2018-08-04T00:38:06.233Z,49.70
2018-08-04T00:40:37.198Z,49.60
2018-08-04T00:43:07.579Z,49.80
2018-08-04T00:45:38.279Z,50.50
2018-08-04T00:48:08.961Z,50.00
2018-08-04T00:50:39.644Z,50.10
2018-08-04T00:53:10.872Z,50.20
2018-08-04T00:58:12.167Z,50.30
2018-08-04T01:00:42.822Z,50.50
2018-08-04T01:03:14.070Z,50.50
2018-08-04T01:05:44.697Z,50.70
2018-08-04T01:08:15.929Z,50.70
2018-08-04T01:10:46.844Z,50.80
2018-08-04T01:13:17.849Z,50.70
2018-08-04T01:18:19.332Z,50.90
2018-08-04T01:20:50.288Z,51.00
2018-08-04T01:23:21.155Z,51.00
2018-08-04T01:25:52.196Z,51.00
2018-08-04T01:28:23.124Z,51.10
2018-08-04T01:30:53.979Z,51.30
2018-08-04T01:33:24.882Z,51.30
2018-08-04T01:35:56.335Z,50.90
2018-08-04T01:38:26.937Z,51.20
2018-08-04T01:40:57.834Z,51.40
2018-08-04T01:43:28.611Z,51.70
2018-08-04T01:45:59.387Z,51.90
2018-08-04T01:48:30.464Z,52.00
2018-08-04T01:53:31.345Z,52.20
2018-08-04T01:56:02.216Z,51.90
2018-08-04T01:58:33.101Z,52.20
2018-08-04T02:01:03.780Z,52.20
2018-08-04T02:03:34.148Z,52.40
2018-08-04T02:08:34.776Z,52.50
2018-08-04T02:11:05.150Z,52.50
2018-08-04T02:13:41.680Z,52.40
2018-08-04T02:16:12.050Z,52.40
2018-08-04T02:18:42.608Z,52.70
2018-08-04T02:21:12.971Z,52.90
2018-08-04T02:26:13.871Z,52.70
2018-08-04T02:28:44.261Z,52.70
2018-08-04T02:31:14.866Z,52.60
2018-08-04T02:36:15.157Z,52.90
2018-08-04T02:38:45.844Z,53.00
2018-08-04T02:41:16.176Z,53.00
2018-08-04T02:43:47.127Z,53.10
2018-08-04T02:46:17.787Z,53.40
2018-08-04T02:48:48.496Z,53.40
2018-08-04T02:51:18.845Z,53.40
2018-08-04T02:53:49.680Z,53.50
2018-08-04T02:56:20.298Z,53.30
2018-08-04T02:58:51.451Z,53.40
2018-08-04T03:01:22.083Z,53.50
2018-08-04T03:03:52.794Z,53.60
2018-08-04T03:06:23.648Z,53.80
2018-08-04T03:11:24.915Z,53.90
2018-08-04T03:13:56.404Z,53.90
2018-08-04T03:21:31.483Z,54.20
2018-08-04T03:24:02.675Z,53.90
2018-08-04T03:26:33.720Z,53.90
2018-08-04T03:29:04.882Z,54.10
2018-08-04T03:31:35.913Z,54.30
2018-08-04T03:34:06.624Z,54.30
2018-08-04T03:41:40.013Z,54.50
2018-08-04T03:44:10.432Z,54.60
2018-08-04T03:46:41.507Z,54.70
2018-08-04T03:49:12.220Z,54.60
2018-08-04T03:51:43.116Z,54.60
2018-08-04T03:54:13.780Z,54.80
2018-08-04T03:56:44.108Z,54.80
2018-08-04T03:59:14.544Z,54.90
2018-08-04T04:01:44.913Z,54.80
2018-08-04T04:04:15.290Z,55.10
2018-08-04T04:06:45.903Z,55.10
2018-08-04T04:09:16.684Z,55.20
2018-08-04T04:11:47.620Z,55.10
2018-08-04T04:14:17.989Z,55.30
2018-08-04T04:16:49.211Z,55.50
2018-08-04T04:19:20.083Z,55.60
2018-08-04T04:21:50.675Z,55.50
2018-08-04T04:24:21.377Z,55.60
2018-08-04T04:26:52.052Z,55.80
2018-08-04T04:29:22.949Z,55.90
2018-08-04T04:31:54.070Z,56.10
2018-08-04T04:34:25.509Z,55.90
2018-08-04T04:36:56.172Z,55.90
2018-08-04T04:39:27.000Z,56.10
2018-08-04T04:41:57.327Z,56.20
2018-08-04T04:44:28.033Z,56.30
2018-08-04T04:46:58.688Z,56.30
2018-08-04T04:49:29.625Z,56.40
2018-08-04T04:57:01.601Z,56.70
2018-08-04T04:59:32.902Z,56.70
2018-08-04T05:04:33.653Z,56.50
2018-08-04T05:09:34.189Z,56.30
2018-08-04T05:12:04.761Z,56.10
2018-08-04T05:14:35.587Z,56.20
2018-08-04T05:17:06.497Z,56.50
2018-08-04T05:22:07.328Z,56.80
2018-08-04T05:24:37.700Z,56.70
2018-08-04T05:27:08.621Z,57.10
2018-08-04T05:32:09.416Z,56.70
2018-08-04T05:37:09.986Z,57.10
2018-08-04T05:39:40.623Z,57.00
2018-08-04T05:42:10.954Z,57.20
2018-08-04T05:44:42.133Z,56.90
2018-08-04T05:47:13.372Z,56.80
2018-08-04T05:49:43.991Z,57.10
2018-08-04T05:52:14.559Z,56.70
2018-08-04T05:54:45.240Z,56.80
2018-08-04T05:57:16.149Z,56.50
2018-08-04T05:59:47.035Z,56.50
2018-08-04T06:02:17.935Z,56.40
2018-08-04T06:04:48.556Z,56.30
2018-08-04T06:07:19.187Z,56.20
2018-08-04T06:09:50.063Z,56.30
2018-08-04T06:12:20.401Z,56.20
2018-08-04T06:14:51.832Z,56.20
2018-08-04T06:17:22.965Z,55.80
2018-08-04T06:19:53.621Z,55.80
2018-08-04T06:22:24.480Z,55.40
2018-08-04T06:27:26.560Z,55.20
2018-08-04T06:29:57.262Z,55.30
2018-08-04T06:32:27.832Z,55.60
2018-08-04T06:34:58.833Z,54.70
2018-08-04T06:37:29.196Z,54.60
2018-08-04T06:39:59.808Z,54.70
2018-08-04T06:45:01.887Z,54.00
2018-08-04T06:50:03.845Z,54.60
2018-08-04T06:52:35.048Z,54.70
2018-08-04T06:55:06.806Z,54.00
2018-08-04T06:57:38.220Z,54.10
2018-08-04T07:02:40.237Z,52.50
2018-08-04T07:05:11.408Z,51.90
2018-08-04T07:07:42.348Z,51.40
2018-08-04T07:10:14.027Z,50.80
2018-08-04T07:15:15.924Z,49.60
2018-08-04T07:17:47.070Z,48.80
2018-08-04T07:20:18.500Z,48.10
2018-08-04T07:27:50.912Z,46.90
2018-08-04T07:30:22.080Z,45.30
2018-08-04T07:32:53.289Z,44.40
2018-08-04T07:37:55.012Z,43.30
2018-08-04T07:40:25.947Z,42.50
2018-08-04T07:42:57.017Z,41.80
2018-08-04T07:45:28.184Z,41.50
2018-08-04T07:47:59.338Z,41.00
2018-08-04T07:50:31.025Z,40.70
2018-08-04T07:55:34.264Z,39.70
2018-08-04T07:58:05.097Z,39.90
2018-08-04T08:05:36.567Z,37.80
2018-08-04T08:08:07.455Z,37.30
2018-08-04T08:10:38.531Z,37.10
2018-08-04T08:13:09.653Z,36.60
2018-08-04T08:15:41.063Z,36.10
2018-08-04T08:18:12.855Z,35.60
2018-08-04T08:20:43.833Z,35.00
2018-08-04T08:28:38.239Z,33.70
2018-08-04T08:31:09.250Z,32.80
2018-08-04T08:33:41.485Z,32.40
2018-08-04T08:36:12.620Z,31.70
2018-08-04T08:38:43.263Z,31.30
2018-08-04T08:41:14.176Z,31.00
2018-08-04T08:46:15.839Z,30.30
2018-08-04T08:51:17.840Z,30.00
2018-08-04T08:53:48.990Z,29.60
2018-08-04T08:56:20.151Z,29.60
2018-08-04T08:58:51.047Z,29.30
2018-08-04T09:01:22.099Z,29.10
2018-08-04T09:03:53.179Z,29.10
2018-08-04T09:06:23.857Z,29.20
2018-08-04T09:08:54.991Z,29.00
2018-08-04T09:13:56.136Z,28.90
2018-08-04T09:16:27.081Z,28.70
2018-08-04T09:18:57.984Z,29.10
2018-08-04T09:21:29.513Z,28.50
2018-08-04T09:26:32.110Z,28.30
2018-08-04T09:29:03.135Z,28.10
2018-08-04T09:31:34.528Z,28.00
2018-08-04T09:34:05.403Z,28.00
2018-08-04T09:36:37.077Z,27.90
2018-08-04T09:39:13.032Z,27.90
2018-08-04T09:41:43.879Z,28.00
2018-08-04T09:44:14.727Z,28.10
2018-08-04T09:46:45.383Z,28.20
2018-08-04T09:49:16.295Z,28.60
2018-08-04T09:51:47.472Z,28.90
2018-08-04T09:54:18.826Z,29.30
2018-08-04T09:56:49.993Z,29.60
2018-08-04T09:59:21.380Z,30.10
2018-08-04T10:01:56.448Z,30.10
2018-08-04T10:04:35.073Z,30.70
2018-08-04T10:07:07.469Z,30.90
2018-08-04T10:09:38.800Z,31.40
2018-08-04T10:12:09.930Z,31.60
2018-08-04T10:14:42.240Z,31.70
2018-08-04T10:17:13.346Z,32.00
2018-08-04T10:19:44.507Z,32.20
2018-08-04T10:22:22.708Z,32.40
2018-08-04T10:24:54.678Z,32.40
2018-08-04T10:29:57.510Z,32.70
2018-08-04T10:32:28.559Z,33.10
2018-08-04T10:34:59.924Z,33.10
2018-08-04T10:37:31.119Z,33.10
2018-08-04T10:40:02.321Z,33.70
2018-08-04T10:42:33.465Z,33.80
2018-08-04T10:45:05.457Z,33.80
2018-08-04T10:47:41.757Z,34.30
2018-08-04T10:50:21.849Z,34.50
2018-08-04T10:52:53.490Z,34.00
2018-08-04T10:55:24.673Z,34.30
2018-08-04T10:57:56.063Z,34.50
2018-08-04T11:00:27.492Z,34.60
2018-08-04T11:02:58.644Z,34.90
2018-08-04T11:05:29.854Z,34.30
2018-08-04T11:08:01.023Z,34.50
2018-08-04T11:10:32.924Z,34.20
2018-08-04T11:13:04.704Z,34.70
2018-08-04T11:18:06.391Z,34.30
2018-08-04T11:20:37.499Z,34.70
2018-08-04T11:23:08.449Z,34.80
2018-08-04T11:28:10.610Z,35.20
2018-08-04T11:30:47.711Z,35.70
2018-08-04T11:33:19.374Z,35.60
2018-08-04T11:35:50.793Z,35.10
2018-08-04T11:40:57.918Z,34.90
2018-08-04T11:43:38.141Z,35.40
2018-08-04T11:46:18.478Z,34.50
2018-08-04T11:48:50.427Z,34.60
2018-08-04T11:51:22.148Z,34.90
2018-08-04T11:53:53.423Z,35.10
2018-08-04T11:56:24.916Z,34.80
2018-08-04T11:58:56.349Z,34.40
2018-08-04T12:01:27.801Z,34.00
2018-08-04T12:04:05.783Z,34.10
2018-08-04T12:09:11.989Z,34.10
2018-08-04T12:11:43.273Z,33.10
2018-08-04T12:16:44.908Z,32.70
2018-08-04T12:19:15.841Z,32.90
2018-08-04T12:21:46.959Z,33.30
2018-08-04T12:24:18.107Z,34.00
2018-08-04T12:26:49.253Z,33.50
2018-08-04T12:29:20.646Z,34.00
2018-08-04T12:31:51.785Z,34.30
2018-08-04T12:34:22.693Z,33.90
2018-08-04T12:36:55.757Z,33.90
2018-08-04T12:39:27.989Z,34.00
2018-08-04T12:41:59.103Z,34.10
2018-08-04T12:44:30.309Z,33.40
2018-08-04T12:47:01.449Z,33.00
2018-08-04T12:49:39.537Z,32.60
2018-08-04T12:52:18.581Z,32.50
2018-08-04T12:54:50.171Z,32.40
2018-08-04T12:57:22.127Z,33.10
2018-08-04T12:59:59.940Z,32.10
2018-08-04T13:02:31.888Z,32.40
2018-08-04T13:05:03.125Z,32.10
2018-08-04T13:07:34.004Z,32.30
2018-08-04T13:10:05.684Z,32.10
2018-08-04T13:12:37.702Z,31.90
2018-08-04T13:20:11.113Z,32.10
2018-08-04T13:22:42.373Z,31.50
2018-08-04T13:25:13.628Z,31.60
2018-08-04T13:30:23.017Z,32.40
2018-08-04T13:35:25.028Z,31.30
2018-08-04T13:37:56.359Z,31.00
2018-08-04T13:40:27.617Z,30.70
2018-08-04T13:42:58.621Z,31.50
2018-08-04T13:45:37.672Z,31.60
2018-08-04T13:48:16.065Z,31.50
2018-08-04T13:50:53.067Z,31.60
2018-08-04T13:53:24.763Z,31.60
2018-08-04T13:58:33.258Z,32.00
2018-08-04T14:01:05.136Z,31.90
2018-08-04T14:03:36.052Z,31.80
2018-08-04T14:06:07.812Z,31.40
2018-08-04T14:11:15.091Z,31.90
2018-08-04T14:13:46.800Z,31.50
2018-08-04T14:18:48.555Z,32.10
2018-08-04T14:21:20.098Z,31.90
2018-08-04T14:23:51.436Z,31.50
2018-08-04T14:26:22.927Z,31.50
2018-08-04T14:28:54.952Z,31.40
2018-08-04T14:33:57.146Z,31.50
2018-08-04T14:36:28.124Z,31.20
2018-08-04T14:38:59.519Z,30.90
2018-08-04T14:41:31.211Z,31.10
2018-08-04T14:44:02.344Z,31.10
2018-08-04T14:49:11.196Z,31.30
2018-08-04T14:54:13.398Z,31.50
2018-08-04T14:56:45.065Z,31.20
2018-08-04T14:59:16.885Z,30.80
2018-08-04T15:01:56.492Z,30.80
2018-08-04T15:07:06.593Z,30.70
2018-08-04T15:12:08.758Z,30.60
2018-08-04T15:14:40.160Z,30.50
2018-08-04T15:17:11.136Z,31.10
2018-08-04T15:19:42.804Z,30.70
2018-08-04T15:22:14.286Z,30.60
2018-08-04T15:24:49.734Z,30.30
2018-08-04T15:30:00.427Z,30.20
2018-08-04T15:32:38.478Z,30.00
2018-08-04T15:35:11.470Z,30.30
2018-08-04T15:37:43.165Z,30.00
2018-08-04T15:42:46.445Z,29.80
2018-08-04T15:45:17.558Z,29.50
2018-08-04T15:47:49.224Z,29.60
2018-08-04T15:50:21.529Z,29.60
2018-08-04T15:52:53.933Z,29.50
2018-08-04T15:55:25.942Z,29.50
2018-08-04T15:57:57.642Z,29.90
2018-08-04T16:00:29.705Z,29.60
2018-08-04T16:03:03.122Z,29.60
2018-08-04T16:08:11.619Z,29.90
2018-08-04T16:10:43.219Z,30.00
2018-08-04T16:13:14.397Z,30.20
2018-08-04T16:15:45.832Z,30.10
2018-08-04T16:20:47.713Z,30.30
2018-08-04T16:23:19.154Z,30.70
2018-08-04T16:25:50.068Z,30.40
2018-08-04T16:28:21.460Z,30.60
2018-08-04T16:30:52.836Z,30.90
2018-08-04T16:33:23.986Z,31.00
2018-08-04T16:35:55.138Z,31.20
2018-08-04T16:38:26.056Z,31.20
2018-08-04T16:40:57.202Z,30.90
2018-08-04T16:43:36.962Z,31.00
2018-08-04T16:46:15.050Z,31.10
2018-08-04T16:48:49.760Z,31.10
2018-08-04T16:51:20.863Z,31.00
2018-08-04T16:53:53.007Z,31.00
2018-08-04T16:56:28.867Z,31.00
2018-08-04T16:59:00.444Z,30.70
2018-08-04T17:01:31.344Z,30.50
2018-08-04T17:04:02.729Z,30.50
2018-08-04T17:09:06.908Z,30.70
2018-08-04T17:11:38.067Z,30.90
2018-08-04T17:14:09.380Z,30.70
2018-08-04T17:19:10.966Z,30.90
2018-08-04T17:21:41.855Z,30.70
2018-08-04T17:29:14.201Z,30.90
2018-08-04T17:31:45.386Z,31.40
2018-08-04T17:34:16.504Z,31.50
2018-08-04T17:36:47.665Z,31.80
2018-08-04T17:41:55.400Z,31.40
2018-08-04T17:44:27.074Z,31.70
2018-08-04T17:46:58.635Z,32.00
2018-08-04T17:49:29.572Z,31.90
2018-08-04T17:52:00.707Z,31.70
2018-08-04T17:54:40.260Z,32.50
2018-08-04T17:57:19.241Z,32.90
2018-08-04T17:59:58.742Z,33.70
2018-08-04T18:02:30.583Z,34.10
2018-08-04T18:05:02.188Z,33.30
2018-08-04T18:10:09.923Z,33.30
2018-08-04T18:12:41.101Z,33.30
2018-08-04T18:15:12.444Z,33.30
2018-08-04T18:17:43.588Z,33.70
2018-08-04T18:20:14.716Z,34.60
2018-08-04T18:22:45.907Z,35.10
2018-08-04T18:25:17.509Z,35.40
2018-08-04T18:27:48.694Z,35.80
2018-08-04T18:30:19.610Z,35.80
2018-08-04T18:32:50.541Z,36.10
2018-08-04T18:35:21.791Z,36.30
2018-08-04T18:38:01.737Z,36.30
2018-08-04T18:40:33.915Z,36.10
2018-08-04T18:43:04.837Z,36.10
2018-08-04T18:45:35.967Z,36.10
2018-08-04T18:48:07.832Z,36.10
2018-08-04T18:50:38.940Z,36.40
2018-08-04T18:53:09.911Z,36.10
2018-08-04T18:55:41.272Z,36.30
2018-08-04T18:58:12.434Z,39.40
2018-08-04T19:00:43.349Z,37.40
2018-08-04T19:03:15.204Z,37.10
2018-08-04T19:08:17.232Z,37.20
2018-08-04T19:10:48.366Z,37.50
2018-08-04T19:13:20.326Z,37.70
2018-08-04T19:15:51.962Z,37.60
2018-08-04T19:18:23.077Z,37.10
2018-08-04T19:20:54.011Z,36.90
2018-08-04T19:23:25.444Z,37.00
2018-08-04T19:25:56.833Z,36.60
2018-08-04T19:28:28.133Z,37.00
2018-08-04T19:30:59.472Z,37.10
2018-08-04T19:33:30.687Z,37.00
2018-08-04T19:38:32.470Z,37.30
2018-08-04T19:41:04.473Z,36.60
2018-08-04T19:43:35.980Z,36.40
2018-08-04T19:48:38.467Z,36.90
2018-08-04T19:51:09.359Z,36.20
2018-08-04T19:53:40.520Z,35.80
2018-08-04T19:56:11.724Z,35.90
2018-08-04T19:58:42.960Z,35.70
2018-08-04T20:01:14.110Z,35.40
2018-08-04T20:03:45.041Z,35.30
2018-08-04T20:06:15.937Z,35.40
2018-08-04T20:08:47.196Z,35.40
2018-08-04T20:11:18.530Z,35.10
2018-08-04T20:13:49.704Z,35.10
2018-08-04T20:16:20.588Z,34.70
2018-08-04T20:18:51.768Z,34.70
2018-08-04T20:21:23.207Z,34.50
2018-08-04T20:23:54.158Z,34.50
2018-08-04T20:26:25.291Z,34.10
2018-08-04T20:28:56.467Z,34.10
2018-08-04T20:31:27.578Z,34.60
2018-08-04T20:36:29.761Z,35.60
2018-08-04T20:39:00.923Z,35.30
2018-08-04T20:41:31.817Z,35.90
2018-08-04T20:44:02.749Z,36.20
2018-08-04T20:46:34.011Z,36.70
2018-08-04T20:49:04.977Z,36.40
2018-08-04T20:51:36.452Z,36.40
2018-08-04T20:54:07.758Z,37.00
2018-08-04T20:56:38.216Z,36.90
2018-08-04T20:59:08.898Z,36.70
2018-08-04T21:02:06.634Z,37.40
2018-08-04T21:04:38.471Z,38.00
2018-08-04T21:07:08.837Z,38.20
2018-08-04T21:09:39.208Z,37.50
2018-08-04T21:12:09.805Z,37.80
2018-08-04T21:14:40.184Z,37.30
2018-08-04T21:19:41.381Z,37.40
2018-08-04T21:22:11.733Z,37.30
2018-08-04T21:24:42.947Z,37.90
2018-08-04T21:27:13.596Z,37.70
2018-08-04T21:29:44.980Z,37.80
2018-08-04T21:37:15.539Z,37.70
2018-08-04T21:42:16.392Z,37.60
2018-08-04T21:47:18.067Z,37.60
2018-08-04T21:52:19.289Z,39.70
2018-08-04T21:54:50.674Z,39.90
2018-08-04T21:59:51.395Z,40.40
2018-08-04T22:02:21.736Z,41.10
2018-08-04T22:04:52.344Z,41.00
2018-08-04T22:07:49.628Z,41.50
2018-08-04T22:10:20.257Z,40.90
2018-08-04T22:15:21.015Z,40.00
2018-08-04T22:20:22.326Z,40.60
2018-08-04T22:22:53.009Z,40.90
2018-08-04T22:25:24.660Z,41.30
2018-08-04T22:27:55.787Z,41.00
2018-08-04T22:32:57.286Z,41.00
2018-08-04T22:35:28.270Z,40.10
2018-08-04T22:37:58.964Z,40.10
2018-08-04T22:40:29.671Z,40.00
2018-08-04T22:43:00.490Z,40.10
2018-08-04T22:48:45.779Z,40.00
2018-08-04T22:51:24.703Z,39.90
2018-08-04T22:53:55.639Z,39.90
2018-08-04T22:56:26.542Z,40.00
2018-08-04T22:58:57.120Z,39.30
2018-08-04T23:04:06.182Z,39.80
2018-08-04T23:06:45.206Z,39.80
2018-08-04T23:09:23.425Z,39.70
2018-08-04T23:11:54.798Z,39.70
2018-08-04T23:14:25.147Z,39.60
2018-08-04T23:16:55.540Z,39.60
2018-08-04T23:19:26.124Z,39.50
2018-08-04T23:24:26.732Z,39.50
2018-08-04T23:26:58.351Z,39.60
2018-08-04T23:29:29.032Z,39.50
2018-08-04T23:31:59.403Z,39.60
2018-08-04T23:34:29.750Z,39.50
2018-08-04T23:37:00.503Z,39.50
2018-08-04T23:39:30.831Z,39.40
2018-08-04T23:42:01.200Z,39.40
2018-08-04T23:44:31.539Z,39.40
2018-08-04T23:47:01.916Z,39.40
2018-08-04T23:49:32.548Z,39.40
2018-08-04T23:52:03.466Z,39.40
2018-08-04T23:54:33.802Z,39.40
2018-08-04T23:57:04.464Z,39.40
2018-08-04T23:59:34.800Z,39.70
